Terminal Aerodrome Forecast
Issued by NWS Jacksonville, FL

Home | Current Version | Previous Version | Text Only | Print | Product List | Glossary On
Versions: 1 2 3 4 5 6 7 8 9 10 11 12 13 14 15 16 17 18 19 20 21 22 23
000
FTUS42 KJAX 020706 AAB
TAFJAX
TAF AMD
KJAX 020706Z 0207/0306 03003KT 5SM BR FEW002 SCT006
      TEMPO 0207/0210 3/4SM BR BKN005
     FM021000 05002KT 1/2SM FG BKN003
     FM021300 10010KT P6SM SCT030 BKN200
     FM021800 11011G17KT P6SM SCT040 BKN250
     FM030000 11006KT P6SM SCT100 BKN250=

USA.gov is the U.S. government's official web portal to all federal, state and local government web resources and services.